sensor_id;sensor_type;location;lat;lon;timestamp;P1;durP1;ratioP1;P2;durP2;ratioP2
79361;SDS011;68830;47.566;19.012;2024-03-23T00:55:47;22.35;;;14.55;;
79361;SDS011;68830;47.566;19.012;2024-03-23T00:58:49;20.70;;;13.85;;
79361;SDS011;68830;47.566;19.012;2024-03-23T01:01:50;24.73;;;13.55;;
79361;SDS011;68830;47.566;19.012;2024-03-23T01:04:52;20.52;;;12.80;;
79361;SDS011;68830;47.566;19.012;2024-03-23T01:07:53;21.15;;;13.13;;
79361;SDS011;68830;47.566;19.012;2024-03-23T01:10:56;22.75;;;12.73;;
79361;SDS011;68830;47.566;19.012;2024-03-23T01:13:57;19.80;;;11.30;;
79361;SDS011;68830;47.566;19.012;2024-03-23T01:16:59;32.05;;;13.02;;
79361;SDS011;68830;47.566;19.012;2024-03-23T01:20:00;21.30;;;12.02;;
79361;SDS011;68830;47.566;19.012;2024-03-23T01:23:01;22.15;;;13.82;;
79361;SDS011;68830;47.566;19.012;2024-03-23T01:26:03;30.73;;;12.73;;
79361;SDS011;68830;47.566;19.012;2024-03-23T01:29:05;20.63;;;11.40;;
79361;SDS011;68830;47.566;19.012;2024-03-23T01:32:06;25.60;;;12.98;;
79361;SDS011;68830;47.566;19.012;2024-03-23T01:35:07;21.63;;;13.52;;
79361;SDS011;68830;47.566;19.012;2024-03-23T01:38:09;18.40;;;11.65;;
79361;SDS011;68830;47.566;19.012;2024-03-23T01:41:11;21.15;;;12.85;;
79361;SDS011;68830;47.566;19.012;2024-03-23T01:44:13;19.70;;;13.07;;
79361;SDS011;68830;47.566;19.012;2024-03-23T01:47:14;20.02;;;12.35;;
79361;SDS011;68830;47.566;19.012;2024-03-23T01:50:15;19.95;;;10.73;;
79361;SDS011;68830;47.566;19.012;2024-03-23T01:53:17;20.50;;;11.45;;
79361;SDS011;68830;47.566;19.012;2024-03-23T01:56:21;23.55;;;13.18;;
79361;SDS011;68830;47.566;19.012;2024-03-23T01:59:23;22.92;;;12.43;;
79361;SDS011;68830;47.566;19.012;2024-03-23T02:02:24;20.50;;;12.07;;
79361;SDS011;68830;47.566;19.012;2024-03-23T02:05:25;23.35;;;12.45;;
79361;SDS011;68830;47.566;19.012;2024-03-23T02:08:26;19.50;;;11.40;;
79361;SDS011;68830;47.566;19.012;2024-03-23T02:11:28;17.77;;;11.52;;
79361;SDS011;68830;47.566;19.012;2024-03-23T02:14:29;19.42;;;11.80;;
79361;SDS011;68830;47.566;19.012;2024-03-23T02:17:30;19.33;;;11.38;;
79361;SDS011;68830;47.566;19.012;2024-03-23T02:20:35;18.95;;;11.75;;
79361;SDS011;68830;47.566;19.012;2024-03-23T02:23:38;24.38;;;12.05;;
79361;SDS011;68830;47.566;19.012;2024-03-23T02:26:39;21.83;;;13.23;;
79361;SDS011;68830;47.566;19.012;2024-03-23T02:29:41;20.67;;;14.18;;
79361;SDS011;68830;47.566;19.012;2024-03-23T02:32:41;21.60;;;13.93;;
79361;SDS011;68830;47.566;19.012;2024-03-23T02:35:43;19.88;;;12.75;;
79361;SDS011;68830;47.566;19.012;2024-03-23T02:38:45;21.73;;;13.27;;
79361;SDS011;68830;47.566;19.012;2024-03-23T02:41:46;21.10;;;13.05;;
79361;SDS011;68830;47.566;19.012;2024-03-23T02:44:49;22.30;;;12.52;;
79361;SDS011;68830;47.566;19.012;2024-03-23T02:47:49;25.38;;;13.70;;
79361;SDS011;68830;47.566;19.012;2024-03-23T02:50:52;21.95;;;14.73;;
79361;SDS011;68830;47.566;19.012;2024-03-23T02:53:56;24.33;;;13.98;;
79361;SDS011;68830;47.566;19.012;2024-03-23T02:56:57;24.73;;;13.25;;
79361;SDS011;68830;47.566;19.012;2024-03-23T02:59:59;26.63;;;15.85;;
79361;SDS011;68830;47.566;19.012;2024-03-23T03:02:59;23.45;;;13.80;;
79361;SDS011;68830;47.566;19.012;2024-03-23T03:06:00;22.95;;;14.13;;
79361;SDS011;68830;47.566;19.012;2024-03-23T03:09:03;18.88;;;12.98;;
79361;SDS011;68830;47.566;19.012;2024-03-23T03:12:05;23.45;;;13.50;;
79361;SDS011;68830;47.566;19.012;2024-03-23T03:15:08;23.38;;;14.88;;
79361;SDS011;68830;47.566;19.012;2024-03-23T03:18:09;22.38;;;15.82;;
79361;SDS011;68830;47.566;19.012;2024-03-23T03:21:10;29.75;;;14.48;;
79361;SDS011;68830;47.566;19.012;2024-03-23T03:24:13;23.08;;;15.45;;
79361;SDS011;68830;47.566;19.012;2024-03-23T03:27:14;23.67;;;14.98;;
79361;SDS011;68830;47.566;19.012;2024-03-23T03:30:16;26.08;;;14.80;;
79361;SDS011;68830;47.566;19.012;2024-03-23T03:33:17;22.52;;;14.30;;
79361;SDS011;68830;47.566;19.012;2024-03-23T03:36:18;23.45;;;14.10;;
79361;SDS011;68830;47.566;19.012;2024-03-23T03:39:21;25.30;;;14.88;;
79361;SDS011;68830;47.566;19.012;2024-03-23T03:42:23;23.15;;;14.65;;
79361;SDS011;68830;47.566;19.012;2024-03-23T03:45:24;30.92;;;17.25;;
79361;SDS011;68830;47.566;19.012;2024-03-23T03:48:25;29.92;;;16.67;;
79361;SDS011;68830;47.566;19.012;2024-03-23T03:51:26;25.50;;;15.77;;
79361;SDS011;68830;47.566;19.012;2024-03-23T03:54:29;36.03;;;21.00;;
79361;SDS011;68830;47.566;19.012;2024-03-23T03:57:30;26.13;;;16.58;;
79361;SDS011;68830;47.566;19.012;2024-03-23T04:00:31;28.92;;;17.77;;
79361;SDS011;68830;47.566;19.012;2024-03-23T04:03:32;34.45;;;18.55;;
79361;SDS011;68830;47.566;19.012;2024-03-23T04:06:33;36.22;;;18.10;;
79361;SDS011;68830;47.566;19.012;2024-03-23T04:09:36;29.15;;;17.67;;
79361;SDS011;68830;47.566;19.012;2024-03-23T04:12:37;32.60;;;19.40;;
79361;SDS011;68830;47.566;19.012;2024-03-23T04:15:38;32.80;;;19.85;;
79361;SDS011;68830;47.566;19.012;2024-03-23T04:18:40;27.55;;;19.15;;
79361;SDS011;68830;47.566;19.012;2024-03-23T04:21:41;30.67;;;19.83;;
79361;SDS011;68830;47.566;19.012;2024-03-23T04:24:44;35.03;;;19.88;;
79361;SDS011;68830;47.566;19.012;2024-03-23T04:27:45;32.60;;;18.40;;
79361;SDS011;68830;47.566;19.012;2024-03-23T04:30:47;31.77;;;19.45;;
79361;SDS011;68830;47.566;19.012;2024-03-23T04:33:48;34.17;;;20.92;;
79361;SDS011;68830;47.566;19.012;2024-03-23T04:36:49;33.67;;;20.17;;
79361;SDS011;68830;47.566;19.012;2024-03-23T04:39:53;30.35;;;19.55;;
79361;SDS011;68830;47.566;19.012;2024-03-23T04:42:54;34.67;;;20.42;;
79361;SDS011;68830;47.566;19.012;2024-03-23T04:45:55;38.58;;;20.42;;
79361;SDS011;68830;47.566;19.012;2024-03-23T04:48:56;38.03;;;22.75;;
79361;SDS011;68830;47.566;19.012;2024-03-23T04:51:57;27.05;;;18.52;;
79361;SDS011;68830;47.566;19.012;2024-03-23T04:55:00;37.50;;;21.05;;
79361;SDS011;68830;47.566;19.012;2024-03-23T04:58:01;33.22;;;20.13;;
79361;SDS011;68830;47.566;19.012;2024-03-23T05:01:03;29.13;;;20.08;;
79361;SDS011;68830;47.566;19.012;2024-03-23T05:04:04;30.85;;;19.33;;
79361;SDS011;68830;47.566;19.012;2024-03-23T05:07:05;32.88;;;21.90;;
79361;SDS011;68830;47.566;19.012;2024-03-23T05:10:09;36.60;;;19.35;;
79361;SDS011;68830;47.566;19.012;2024-03-23T05:13:14;35.63;;;22.67;;
79361;SDS011;68830;47.566;19.012;2024-03-23T05:16:14;33.00;;;21.58;;
79361;SDS011;68830;47.566;19.012;2024-03-23T05:19:15;38.53;;;20.40;;
79361;SDS011;68830;47.566;19.012;2024-03-23T05:22:16;32.40;;;19.92;;
79361;SDS011;68830;47.566;19.012;2024-03-23T05:25:20;36.83;;;21.88;;
79361;SDS011;68830;47.566;19.012;2024-03-23T05:28:20;34.75;;;21.02;;
79361;SDS011;68830;47.566;19.012;2024-03-23T05:31:22;31.90;;;18.92;;
79361;SDS011;68830;47.566;19.012;2024-03-23T05:34:24;33.15;;;21.75;;
79361;SDS011;68830;47.566;19.012;2024-03-23T05:37:25;33.90;;;21.20;;
79361;SDS011;68830;47.566;19.012;2024-03-23T05:40:27;36.33;;;22.52;;
79361;SDS011;68830;47.566;19.012;2024-03-23T05:43:29;40.33;;;22.83;;
79361;SDS011;68830;47.566;19.012;2024-03-23T05:46:30;29.38;;;19.98;;
79361;SDS011;68830;47.566;19.012;2024-03-23T05:49:32;31.13;;;20.10;;
79361;SDS011;68830;47.566;19.012;2024-03-23T05:52:33;33.85;;;20.60;;
79361;SDS011;68830;47.566;19.012;2024-03-23T05:55:36;34.28;;;21.15;;
79361;SDS011;68830;47.566;19.012;2024-03-23T05:58:37;43.33;;;22.27;;
79361;SDS011;68830;47.566;19.012;2024-03-23T06:01:38;36.97;;;20.92;;
79361;SDS011;68830;47.566;19.012;2024-03-23T06:04:40;36.30;;;21.25;;
79361;SDS011;68830;47.566;19.012;2024-03-23T06:07:41;36.55;;;22.20;;
79361;SDS011;68830;47.566;19.012;2024-03-23T06:10:43;34.63;;;22.95;;
79361;SDS011;68830;47.566;19.012;2024-03-23T06:13:46;33.03;;;21.30;;
79361;SDS011;68830;47.566;19.012;2024-03-23T06:16:47;40.13;;;21.95;;
79361;SDS011;68830;47.566;19.012;2024-03-23T06:19:48;29.60;;;20.80;;
79361;SDS011;68830;47.566;19.012;2024-03-23T06:22:49;36.95;;;21.42;;
79361;SDS011;68830;47.566;19.012;2024-03-23T06:25:51;34.00;;;21.02;;
79361;SDS011;68830;47.566;19.012;2024-03-23T06:28:53;36.05;;;22.63;;
79361;SDS011;68830;47.566;19.012;2024-03-23T06:31:54;32.08;;;21.65;;
79361;SDS011;68830;47.566;19.012;2024-03-23T06:34:56;35.10;;;22.00;;
79361;SDS011;68830;47.566;19.012;2024-03-23T06:37:57;32.65;;;21.55;;
79361;SDS011;68830;47.566;19.012;2024-03-23T06:41:03;37.17;;;23.08;;
79361;SDS011;68830;47.566;19.012;2024-03-23T06:44:05;33.25;;;20.25;;
79361;SDS011;68830;47.566;19.012;2024-03-23T06:47:06;30.33;;;19.77;;
79361;SDS011;68830;47.566;19.012;2024-03-23T06:50:07;34.15;;;21.67;;
79361;SDS011;68830;47.566;19.012;2024-03-23T06:53:11;31.52;;;20.98;;
79361;SDS011;68830;47.566;19.012;2024-03-23T06:56:13;34.03;;;21.83;;
79361;SDS011;68830;47.566;19.012;2024-03-23T06:59:15;34.65;;;22.50;;
79361;SDS011;68830;47.566;19.012;2024-03-23T07:02:16;35.33;;;21.25;;
79361;SDS011;68830;47.566;19.012;2024-03-23T07:05:17;32.92;;;23.13;;
79361;SDS011;68830;47.566;19.012;2024-03-23T07:08:18;30.92;;;22.48;;
79361;SDS011;68830;47.566;19.012;2024-03-23T07:11:24;37.78;;;22.13;;
79361;SDS011;68830;47.566;19.012;2024-03-23T07:14:26;33.03;;;22.10;;
79361;SDS011;68830;47.566;19.012;2024-03-23T07:17:27;37.55;;;23.20;;
79361;SDS011;68830;47.566;19.012;2024-03-23T07:20:28;35.97;;;21.95;;
79361;SDS011;68830;47.566;19.012;2024-03-23T07:23:31;39.65;;;23.02;;
79361;SDS011;68830;47.566;19.012;2024-03-23T07:26:33;30.92;;;22.25;;
79361;SDS011;68830;47.566;19.012;2024-03-23T07:29:34;33.65;;;21.40;;
79361;SDS011;68830;47.566;19.012;2024-03-23T07:32:36;35.17;;;22.23;;
79361;SDS011;68830;47.566;19.012;2024-03-23T07:35:37;32.20;;;21.88;;
79361;SDS011;68830;47.566;19.012;2024-03-23T07:38:40;31.05;;;22.00;;
79361;SDS011;68830;47.566;19.012;2024-03-23T07:41:45;36.45;;;22.48;;
79361;SDS011;68830;47.566;19.012;2024-03-23T07:44:46;29.83;;;20.73;;
79361;SDS011;68830;47.566;19.012;2024-03-23T07:47:47;32.78;;;20.65;;
79361;SDS011;68830;47.566;19.012;2024-03-23T07:50:56;33.38;;;22.00;;
79361;SDS011;68830;47.566;19.012;2024-03-23T07:54:00;36.92;;;23.00;;
79361;SDS011;68830;47.566;19.012;2024-03-23T07:57:02;31.90;;;20.55;;
79361;SDS011;68830;47.566;19.012;2024-03-23T08:00:04;34.80;;;19.27;;
79361;SDS011;68830;47.566;19.012;2024-03-23T08:03:07;29.85;;;21.27;;
79361;SDS011;68830;47.566;19.012;2024-03-23T08:06:08;34.63;;;22.88;;
79361;SDS011;68830;47.566;19.012;2024-03-23T08:09:10;33.15;;;24.52;;
79361;SDS011;68830;47.566;19.012;2024-03-23T08:12:12;32.90;;;21.98;;
79361;SDS011;68830;47.566;19.012;2024-03-23T08:15:14;30.05;;;22.52;;
79361;SDS011;68830;47.566;19.012;2024-03-23T08:18:15;34.95;;;25.02;;
79361;SDS011;68830;47.566;19.012;2024-03-23T08:21:17;33.53;;;23.50;;
79361;SDS011;68830;47.566;19.012;2024-03-23T08:24:18;32.80;;;24.00;;
79361;SDS011;68830;47.566;19.012;2024-03-23T08:27:22;40.97;;;28.02;;
79361;SDS011;68830;47.566;19.012;2024-03-23T08:30:23;35.03;;;26.33;;
79361;SDS011;68830;47.566;19.012;2024-03-23T08:33:25;34.60;;;23.73;;
79361;SDS011;68830;47.566;19.012;2024-03-23T08:36:26;27.17;;;21.42;;
79361;SDS011;68830;47.566;19.012;2024-03-23T08:39:27;17.27;;;13.93;;
79361;SDS011;68830;47.566;19.012;2024-03-23T08:42:29;17.10;;;12.85;;
79361;SDS011;68830;47.566;19.012;2024-03-23T08:45:30;18.40;;;13.05;;
79361;SDS011;68830;47.566;19.012;2024-03-23T08:48:32;17.75;;;12.15;;
79361;SDS011;68830;47.566;19.012;2024-03-23T08:51:33;14.77;;;12.23;;
79361;SDS011;68830;47.566;19.012;2024-03-23T08:54:35;14.63;;;11.90;;
79361;SDS011;68830;47.566;19.012;2024-03-23T08:57:37;19.05;;;14.77;;
79361;SDS011;68830;47.566;19.012;2024-03-23T09:00:38;15.93;;;12.93;;
79361;SDS011;68830;47.566;19.012;2024-03-23T09:03:39;22.45;;;14.48;;
79361;SDS011;68830;47.566;19.012;2024-03-23T09:06:42;19.17;;;14.55;;
79361;SDS011;68830;47.566;19.012;2024-03-23T09:09:44;20.05;;;13.57;;
79361;SDS011;68830;47.566;19.012;2024-03-23T09:12:46;18.60;;;14.38;;
79361;SDS011;68830;47.566;19.012;2024-03-23T09:15:48;15.27;;;13.65;;
79361;SDS011;68830;47.566;19.012;2024-03-23T09:18:51;18.77;;;12.57;;
79361;SDS011;68830;47.566;19.012;2024-03-23T09:21:53;14.68;;;13.10;;
79361;SDS011;68830;47.566;19.012;2024-03-23T09:24:53;16.10;;;12.98;;
79361;SDS011;68830;47.566;19.012;2024-03-23T09:27:56;17.77;;;14.27;;
79361;SDS011;68830;47.566;19.012;2024-03-23T09:31:01;18.05;;;13.48;;
79361;SDS011;68830;47.566;19.012;2024-03-23T09:34:04;20.83;;;13.60;;
79361;SDS011;68830;47.566;19.012;2024-03-23T09:37:04;19.83;;;13.23;;
79361;SDS011;68830;47.566;19.012;2024-03-23T09:40:06;13.75;;;11.43;;
79361;SDS011;68830;47.566;19.012;2024-03-23T09:43:12;15.82;;;9.93;;
79361;SDS011;68830;47.566;19.012;2024-03-23T09:46:13;9.20;;;8.05;;
79361;SDS011;68830;47.566;19.012;2024-03-23T09:49:14;8.73;;;7.78;;
79361;SDS011;68830;47.566;19.012;2024-03-23T09:52:16;9.68;;;8.05;;
79361;SDS011;68830;47.566;19.012;2024-03-23T09:55:17;13.98;;;8.90;;
79361;SDS011;68830;47.566;19.012;2024-03-23T09:58:20;11.02;;;9.07;;
79361;SDS011;68830;47.566;19.012;2024-03-23T10:01:23;14.70;;;8.77;;
79361;SDS011;68830;47.566;19.012;2024-03-23T10:04:36;9.10;;;7.05;;
79361;SDS011;68830;47.566;19.012;2024-03-23T10:07:37;8.93;;;6.43;;
79361;SDS011;68830;47.566;19.012;2024-03-23T10:10:39;8.23;;;6.32;;
79361;SDS011;68830;47.566;19.012;2024-03-23T10:13:42;9.95;;;7.30;;
79361;SDS011;68830;47.566;19.012;2024-03-23T10:16:45;11.10;;;8.77;;
79361;SDS011;68830;47.566;19.012;2024-03-23T10:19:46;8.70;;;6.65;;
79361;SDS011;68830;47.566;19.012;2024-03-23T10:22:50;11.02;;;7.03;;
79361;SDS011;68830;47.566;19.012;2024-03-23T10:25:54;8.52;;;7.68;;
79361;SDS011;68830;47.566;19.012;2024-03-23T10:28:56;10.02;;;6.80;;
79361;SDS011;68830;47.566;19.012;2024-03-23T10:32:07;8.65;;;6.65;;
79361;SDS011;68830;47.566;19.012;2024-03-23T10:35:15;8.07;;;5.72;;
79361;SDS011;68830;47.566;19.012;2024-03-23T10:38:19;11.10;;;7.20;;
79361;SDS011;68830;47.566;19.012;2024-03-23T10:41:20;11.02;;;7.47;;
79361;SDS011;68830;47.566;19.012;2024-03-23T10:44:23;10.18;;;6.20;;
79361;SDS011;68830;47.566;19.012;2024-03-23T10:47:29;8.07;;;7.28;;
79361;SDS011;68830;47.566;19.012;2024-03-23T10:50:31;8.00;;;6.80;;
79361;SDS011;68830;47.566;19.012;2024-03-23T10:53:33;12.35;;;8.20;;
79361;SDS011;68830;47.566;19.012;2024-03-23T10:56:35;14.07;;;7.38;;
79361;SDS011;68830;47.566;19.012;2024-03-23T10:59:38;9.85;;;6.70;;
79361;SDS011;68830;47.566;19.012;2024-03-23T11:02:40;13.68;;;9.38;;
79361;SDS011;68830;47.566;19.012;2024-03-23T11:05:43;11.30;;;8.38;;
79361;SDS011;68830;47.566;19.012;2024-03-23T11:08:47;12.57;;;9.27;;
79361;SDS011;68830;47.566;19.012;2024-03-23T11:11:48;11.15;;;7.88;;
79361;SDS011;68830;47.566;19.012;2024-03-23T11:14:51;10.18;;;8.00;;
79361;SDS011;68830;47.566;19.012;2024-03-23T11:18:02;10.75;;;7.55;;
79361;SDS011;68830;47.566;19.012;2024-03-23T11:21:06;11.52;;;7.57;;
79361;SDS011;68830;47.566;19.012;2024-03-23T11:24:13;11.18;;;7.50;;
79361;SDS011;68830;47.566;19.012;2024-03-23T11:27:15;10.95;;;8.30;;
79361;SDS011;68830;47.566;19.012;2024-03-23T11:30:18;9.35;;;7.32;;
79361;SDS011;68830;47.566;19.012;2024-03-23T11:33:20;8.07;;;4.97;;
79361;SDS011;68830;47.566;19.012;2024-03-23T11:36:21;6.60;;;4.47;;
79361;SDS011;68830;47.566;19.012;2024-03-23T11:39:22;8.05;;;4.63;;
79361;SDS011;68830;47.566;19.012;2024-03-23T11:42:23;10.55;;;5.82;;
79361;SDS011;68830;47.566;19.012;2024-03-23T11:45:26;11.18;;;5.03;;
79361;SDS011;68830;47.566;19.012;2024-03-23T11:48:28;7.53;;;4.68;;
79361;SDS011;68830;47.566;19.012;2024-03-23T11:51:29;6.57;;;5.45;;
79361;SDS011;68830;47.566;19.012;2024-03-23T11:54:35;7.03;;;5.55;;
79361;SDS011;68830;47.566;19.012;2024-03-23T11:57:36;5.72;;;4.03;;
79361;SDS011;68830;47.566;19.012;2024-03-23T12:00:39;6.93;;;4.93;;
79361;SDS011;68830;47.566;19.012;2024-03-23T12:03:43;6.68;;;4.45;;
79361;SDS011;68830;47.566;19.012;2024-03-23T12:06:45;5.25;;;4.28;;
79361;SDS011;68830;47.566;19.012;2024-03-23T12:09:46;5.25;;;3.65;;
79361;SDS011;68830;47.566;19.012;2024-03-23T12:13:02;5.63;;;4.63;;
79361;SDS011;68830;47.566;19.012;2024-03-23T12:16:11;6.75;;;4.57;;
79361;SDS011;68830;47.566;19.012;2024-03-23T12:19:13;7.50;;;4.07;;
79361;SDS011;68830;47.566;19.012;2024-03-23T12:22:14;7.50;;;4.50;;
79361;SDS011;68830;47.566;19.012;2024-03-23T12:25:15;5.22;;;4.30;;
79361;SDS011;68830;47.566;19.012;2024-03-23T12:28:16;5.53;;;3.72;;
79361;SDS011;68830;47.566;19.012;2024-03-23T12:31:20;5.13;;;3.80;;
79361;SDS011;68830;47.566;19.012;2024-03-23T12:34:20;5.45;;;4.95;;
79361;SDS011;68830;47.566;19.012;2024-03-23T12:37:21;5.90;;;4.55;;
79361;SDS011;68830;47.566;19.012;2024-03-23T12:40:23;5.93;;;3.72;;
79361;SDS011;68830;47.566;19.012;2024-03-23T12:43:24;5.95;;;3.92;;
79361;SDS011;68830;47.566;19.012;2024-03-23T12:46:26;8.82;;;4.82;;
79361;SDS011;68830;47.566;19.012;2024-03-23T12:49:27;7.10;;;3.83;;
79361;SDS011;68830;47.566;19.012;2024-03-23T12:52:29;4.55;;;3.90;;
79361;SDS011;68830;47.566;19.012;2024-03-23T12:55:30;5.15;;;3.42;;
79361;SDS011;68830;47.566;19.012;2024-03-23T12:58:31;5.53;;;3.60;;
79361;SDS011;68830;47.566;19.012;2024-03-23T13:01:33;4.78;;;3.50;;
79361;SDS011;68830;47.566;19.012;2024-03-23T13:04:34;4.47;;;3.10;;
79361;SDS011;68830;47.566;19.012;2024-03-23T13:07:35;3.75;;;3.38;;
79361;SDS011;68830;47.566;19.012;2024-03-23T13:10:38;4.82;;;3.55;;
79361;SDS011;68830;47.566;19.012;2024-03-23T13:13:39;6.00;;;3.72;;
79361;SDS011;68830;47.566;19.012;2024-03-23T13:16:41;6.50;;;3.75;;
79361;SDS011;68830;47.566;19.012;2024-03-23T13:19:42;7.65;;;4.32;;
79361;SDS011;68830;47.566;19.012;2024-03-23T13:22:43;3.65;;;3.35;;
79361;SDS011;68830;47.566;19.012;2024-03-23T13:25:49;6.57;;;3.40;;
79361;SDS011;68830;47.566;19.012;2024-03-23T13:28:50;4.95;;;3.22;;
79361;SDS011;68830;47.566;19.012;2024-03-23T13:31:52;4.35;;;3.10;;
79361;SDS011;68830;47.566;19.012;2024-03-23T13:34:54;5.22;;;3.22;;
79361;SDS011;68830;47.566;19.012;2024-03-23T13:37:55;4.18;;;3.30;;
79361;SDS011;68830;47.566;19.012;2024-03-23T13:40:56;4.82;;;3.05;;
79361;SDS011;68830;47.566;19.012;2024-03-23T13:43:58;4.28;;;3.33;;
79361;SDS011;68830;47.566;19.012;2024-03-23T13:47:01;3.50;;;2.67;;
79361;SDS011;68830;47.566;19.012;2024-03-23T13:50:04;3.58;;;2.65;;
79361;SDS011;68830;47.566;19.012;2024-03-23T13:53:07;4.72;;;2.85;;
79361;SDS011;68830;47.566;19.012;2024-03-23T13:56:09;4.80;;;2.75;;
79361;SDS011;68830;47.566;19.012;2024-03-23T13:59:10;3.95;;;3.08;;
79361;SDS011;68830;47.566;19.012;2024-03-23T14:02:12;4.68;;;3.30;;
79361;SDS011;68830;47.566;19.012;2024-03-23T14:05:15;4.97;;;3.40;;
79361;SDS011;68830;47.566;19.012;2024-03-23T14:08:15;5.50;;;3.67;;
79361;SDS011;68830;47.566;19.012;2024-03-23T14:11:17;7.10;;;3.10;;
79361;SDS011;68830;47.566;19.012;2024-03-23T14:14:19;4.18;;;2.90;;
79361;SDS011;68830;47.566;19.012;2024-03-23T14:17:23;4.50;;;3.50;;
79361;SDS011;68830;47.566;19.012;2024-03-23T14:20:26;3.47;;;2.92;;
79361;SDS011;68830;47.566;19.012;2024-03-23T14:23:27;3.42;;;2.70;;
79361;SDS011;68830;47.566;19.012;2024-03-23T14:26:35;2.95;;;2.53;;
79361;SDS011;68830;47.566;19.012;2024-03-23T14:29:36;4.28;;;3.28;;
79361;SDS011;68830;47.566;19.012;2024-03-23T14:32:38;4.75;;;3.28;;
79361;SDS011;68830;47.566;19.012;2024-03-23T14:35:39;3.25;;;2.70;;
79361;SDS011;68830;47.566;19.012;2024-03-23T14:38:40;4.53;;;3.20;;
79361;SDS011;68830;47.566;19.012;2024-03-23T14:41:41;3.55;;;2.72;;
79361;SDS011;68830;47.566;19.012;2024-03-23T14:44:42;2.90;;;2.15;;
79361;SDS011;68830;47.566;19.012;2024-03-23T14:47:44;2.90;;;2.40;;
79361;SDS011;68830;47.566;19.012;2024-03-23T14:50:45;3.58;;;2.08;;
79361;SDS011;68830;47.566;19.012;2024-03-23T14:53:47;3.20;;;2.45;;
79361;SDS011;68830;47.566;19.012;2024-03-23T14:56:48;4.25;;;3.13;;
79361;SDS011;68830;47.566;19.012;2024-03-23T14:59:49;3.45;;;2.45;;
79361;SDS011;68830;47.566;19.012;2024-03-23T15:02:51;3.45;;;2.97;;
79361;SDS011;68830;47.566;19.012;2024-03-23T15:05:54;4.13;;;3.47;;
79361;SDS011;68830;47.566;19.012;2024-03-23T15:08:55;5.05;;;3.33;;
79361;SDS011;68830;47.566;19.012;2024-03-23T15:11:57;3.78;;;3.30;;
79361;SDS011;68830;47.566;19.012;2024-03-23T15:14:58;5.05;;;3.38;;
79361;SDS011;68830;47.566;19.012;2024-03-23T15:18:00;5.22;;;2.85;;
79361;SDS011;68830;47.566;19.012;2024-03-23T15:21:01;4.60;;;3.30;;
79361;SDS011;68830;47.566;19.012;2024-03-23T15:24:07;5.97;;;3.17;;
79361;SDS011;68830;47.566;19.012;2024-03-23T15:27:11;7.53;;;3.33;;
79361;SDS011;68830;47.566;19.012;2024-03-23T15:30:12;3.65;;;2.90;;
79361;SDS011;68830;47.566;19.012;2024-03-23T15:33:15;5.88;;;4.32;;
79361;SDS011;68830;47.566;19.012;2024-03-23T15:36:16;4.85;;;3.08;;
79361;SDS011;68830;47.566;19.012;2024-03-23T15:39:18;4.68;;;3.30;;
79361;SDS011;68830;47.566;19.012;2024-03-23T15:42:19;3.60;;;3.15;;
79361;SDS011;68830;47.566;19.012;2024-03-23T15:45:20;3.85;;;3.45;;
79361;SDS011;68830;47.566;19.012;2024-03-23T15:48:22;6.88;;;3.60;;
79361;SDS011;68830;47.566;19.012;2024-03-23T15:51:23;4.00;;;2.90;;
79361;SDS011;68830;47.566;19.012;2024-03-23T15:54:27;5.47;;;3.30;;
79361;SDS011;68830;47.566;19.012;2024-03-23T15:57:28;4.18;;;2.88;;
79361;SDS011;68830;47.566;19.012;2024-03-23T16:00:28;4.40;;;2.90;;
79361;SDS011;68830;47.566;19.012;2024-03-23T16:03:31;3.63;;;3.13;;
79361;SDS011;68830;47.566;19.012;2024-03-23T16:06:33;9.18;;;3.80;;
79361;SDS011;68830;47.566;19.012;2024-03-23T16:09:36;6.07;;;3.17;;
79361;SDS011;68830;47.566;19.012;2024-03-23T16:12:38;6.85;;;3.20;;
79361;SDS011;68830;47.566;19.012;2024-03-23T16:15:40;5.97;;;3.13;;
79361;SDS011;68830;47.566;19.012;2024-03-23T16:18:43;4.97;;;3.78;;
79361;SDS011;68830;47.566;19.012;2024-03-23T16:21:44;4.68;;;3.17;;
79361;SDS011;68830;47.566;19.012;2024-03-23T16:24:46;3.42;;;3.13;;
79361;SDS011;68830;47.566;19.012;2024-03-23T16:27:47;4.20;;;2.75;;
79361;SDS011;68830;47.566;19.012;2024-03-23T16:30:52;7.72;;;4.82;;
79361;SDS011;68830;47.566;19.012;2024-03-23T16:33:56;9.10;;;4.45;;
79361;SDS011;68830;47.566;19.012;2024-03-23T16:36:57;3.47;;;3.17;;
79361;SDS011;68830;47.566;19.012;2024-03-23T16:39:58;5.18;;;3.60;;
79361;SDS011;68830;47.566;19.012;2024-03-23T16:43:00;4.03;;;3.33;;
79361;SDS011;68830;47.566;19.012;2024-03-23T16:46:01;6.88;;;3.15;;
79361;SDS011;68830;47.566;19.012;2024-03-23T16:49:06;4.97;;;3.72;;
79361;SDS011;68830;47.566;19.012;2024-03-23T16:52:07;3.83;;;3.38;;
79361;SDS011;68830;47.566;19.012;2024-03-23T16:55:10;5.32;;;3.35;;
79361;SDS011;68830;47.566;19.012;2024-03-23T16:58:10;6.47;;;2.17;;
79361;SDS011;68830;47.566;19.012;2024-03-23T17:01:12;7.55;;;2.33;;
79361;SDS011;68830;47.566;19.012;2024-03-23T17:04:22;4.60;;;1.85;;
79361;SDS011;68830;47.566;19.012;2024-03-23T17:07:23;7.60;;;1.88;;
79361;SDS011;68830;47.566;19.012;2024-03-23T17:10:24;8.00;;;1.60;;
79361;SDS011;68830;47.566;19.012;2024-03-23T17:13:25;1.67;;;1.10;;
79361;SDS011;68830;47.566;19.012;2024-03-23T17:16:26;4.10;;;1.45;;
79361;SDS011;68830;47.566;19.012;2024-03-23T17:19:32;6.63;;;1.38;;
79361;SDS011;68830;47.566;19.012;2024-03-23T17:22:33;3.00;;;1.63;;
79361;SDS011;68830;47.566;19.012;2024-03-23T17:25:34;1.45;;;1.23;;
79361;SDS011;68830;47.566;19.012;2024-03-23T17:28:35;1.63;;;1.33;;
79361;SDS011;68830;47.566;19.012;2024-03-23T17:31:36;8.05;;;1.65;;
79361;SDS011;68830;47.566;19.012;2024-03-23T17:34:39;4.22;;;1.63;;
79361;SDS011;68830;47.566;19.012;2024-03-23T17:37:41;3.03;;;1.42;;
79361;SDS011;68830;47.566;19.012;2024-03-23T17:40:45;4.60;;;1.90;;
79361;SDS011;68830;47.566;19.012;2024-03-23T17:43:48;3.17;;;1.85;;
79361;SDS011;68830;47.566;19.012;2024-03-23T17:46:49;2.33;;;1.50;;
79361;SDS011;68830;47.566;19.012;2024-03-23T17:49:52;9.30;;;1.75;;
79361;SDS011;68830;47.566;19.012;2024-03-23T17:52:53;2.50;;;1.70;;
79361;SDS011;68830;47.566;19.012;2024-03-23T17:55:54;3.60;;;1.58;;
79361;SDS011;68830;47.566;19.012;2024-03-23T17:58:55;3.30;;;1.20;;
79361;SDS011;68830;47.566;19.012;2024-03-23T18:01:56;3.55;;;2.00;;
79361;SDS011;68830;47.566;19.012;2024-03-23T18:04:59;3.30;;;1.80;;
79361;SDS011;68830;47.566;19.012;2024-03-23T18:08:04;6.70;;;2.08;;
79361;SDS011;68830;47.566;19.012;2024-03-23T18:11:09;2.13;;;1.58;;
79361;SDS011;68830;47.566;19.012;2024-03-23T18:14:10;4.22;;;2.28;;
79361;SDS011;68830;47.566;19.012;2024-03-23T18:17:11;3.70;;;1.40;;
79361;SDS011;68830;47.566;19.012;2024-03-23T18:20:14;0.93;;;0.77;;
79361;SDS011;68830;47.566;19.012;2024-03-23T18:23:15;3.95;;;1.38;;
79361;SDS011;68830;47.566;19.012;2024-03-23T18:26:16;5.07;;;1.45;;
79361;SDS011;68830;47.566;19.012;2024-03-23T18:29:17;1.52;;;1.30;;
79361;SDS011;68830;47.566;19.012;2024-03-23T18:32:19;1.75;;;1.30;;
79361;SDS011;68830;47.566;19.012;2024-03-23T18:35:23;3.25;;;1.25;;
79361;SDS011;68830;47.566;19.012;2024-03-23T18:38:25;2.75;;;1.40;;